sensor_id;sensor_type;location;lat;lon;timestamp;pressure;altitude;pressure_sealevel;temperature;humidity
75455;BME280;64035;48.358;2.122;2023-02-26T00:00:24;100657.97;;;4.09;64.84
75455;BME280;64035;48.358;2.122;2023-02-26T00:01:29;100657.97;;;4.09;65.38
75455;BME280;64035;48.358;2.122;2023-02-26T00:02:33;100654.41;;;4.07;65.14
75455;BME280;64035;48.358;2.122;2023-02-26T00:03:38;100665.19;;;4.05;65.87
75455;BME280;64035;48.358;2.122;2023-02-26T00:04:42;100664.56;;;4.07;66.44
75455;BME280;64035;48.358;2.122;2023-02-26T00:05:45;100659.47;;;4.07;66.03
75455;BME280;64035;48.358;2.122;2023-02-26T00:06:48;100664.44;;;4.06;65.81
75455;BME280;64035;48.358;2.122;2023-02-26T00:07:54;100663.53;;;4.05;65.41
75455;BME280;64035;48.358;2.122;2023-02-26T00:08:57;100667.72;;;4.05;65.64
75455;BME280;64035;48.358;2.122;2023-02-26T00:10:01;100671.00;;;4.04;66.03
75455;BME280;64035;48.358;2.122;2023-02-26T00:11:08;100668.38;;;4.02;65.75
75455;BME280;64035;48.358;2.122;2023-02-26T00:12:12;100676.75;;;4.01;66.05
75455;BME280;64035;48.358;2.122;2023-02-26T00:13:16;100670.78;;;4.01;66.39
75455;BME280;64035;48.358;2.122;2023-02-26T00:14:19;100667.38;;;4.00;66.31
75455;BME280;64035;48.358;2.122;2023-02-26T00:15:23;100675.22;;;4.03;66.39
75455;BME280;64035;48.358;2.122;2023-02-26T00:16:29;100685.34;;;4.03;66.63
75455;BME280;64035;48.358;2.122;2023-02-26T00:17:54;100673.66;;;4.05;66.49
75455;BME280;64035;48.358;2.122;2023-02-26T00:19:01;100687.00;;;4.03;66.25
75455;BME280;64035;48.358;2.122;2023-02-26T00:20:06;100675.72;;;3.99;65.89
75455;BME280;64035;48.358;2.122;2023-02-26T00:21:16;100683.97;;;3.97;65.58
75455;BME280;64035;48.358;2.122;2023-02-26T00:22:20;100683.75;;;3.93;65.12
75455;BME280;64035;48.358;2.122;2023-02-26T00:23:23;100680.31;;;3.93;65.44
75455;BME280;64035;48.358;2.122;2023-02-26T00:24:26;100686.16;;;3.92;65.67
75455;BME280;64035;48.358;2.122;2023-02-26T00:25:29;100688.34;;;3.87;65.56
75455;BME280;64035;48.358;2.122;2023-02-26T00:26:33;100685.44;;;3.83;65.01
75455;BME280;64035;48.358;2.122;2023-02-26T00:27:37;100689.38;;;3.79;64.80
75455;BME280;64035;48.358;2.122;2023-02-26T00:28:40;100689.25;;;3.78;64.70
75455;BME280;64035;48.358;2.122;2023-02-26T00:29:44;100693.72;;;3.70;64.89
75455;BME280;64035;48.358;2.122;2023-02-26T00:30:48;100705.34;;;3.68;65.83
75455;BME280;64035;48.358;2.122;2023-02-26T00:31:51;100700.53;;;3.71;66.29
75455;BME280;64035;48.358;2.122;2023-02-26T00:32:54;100697.00;;;3.69;65.78
75455;BME280;64035;48.358;2.122;2023-02-26T00:33:57;100702.81;;;3.68;65.77
75455;BME280;64035;48.358;2.122;2023-02-26T00:35:02;100710.31;;;3.67;65.60
75455;BME280;64035;48.358;2.122;2023-02-26T00:40:36;100701.59;;;3.63;66.10
75455;BME280;64035;48.358;2.122;2023-02-26T00:41:41;100699.06;;;3.63;65.64
75455;BME280;64035;48.358;2.122;2023-02-26T00:42:45;100700.06;;;3.65;66.40
75455;BME280;64035;48.358;2.122;2023-02-26T00:43:48;100695.75;;;3.64;66.06
75455;BME280;64035;48.358;2.122;2023-02-26T00:44:52;100690.56;;;3.63;65.57
75455;BME280;64035;48.358;2.122;2023-02-26T00:47:55;100692.22;;;3.62;66.13
75455;BME280;64035;48.358;2.122;2023-02-26T00:49:31;100697.28;;;3.62;66.41
75455;BME280;64035;48.358;2.122;2023-02-26T00:50:52;100693.75;;;3.60;65.99
75455;BME280;64035;48.358;2.122;2023-02-26T00:52:01;100700.34;;;3.58;65.66
75455;BME280;64035;48.358;2.122;2023-02-26T00:54:08;100696.81;;;3.56;65.64
75455;BME280;64035;48.358;2.122;2023-02-26T00:54:44;100699.47;;;3.58;66.05
75455;BME280;64035;48.358;2.122;2023-02-26T00:55:51;100694.13;;;3.54;65.33
75455;BME280;64035;48.358;2.122;2023-02-26T00:56:55;100704.25;;;3.54;65.79
75455;BME280;64035;48.358;2.122;2023-02-26T00:57:58;100704.13;;;3.53;65.98
75455;BME280;64035;48.358;2.122;2023-02-26T00:59:01;100706.66;;;3.53;65.48
75455;BME280;64035;48.358;2.122;2023-02-26T01:00:05;100704.91;;;3.52;66.19
75455;BME280;64035;48.358;2.122;2023-02-26T01:01:09;100703.28;;;3.52;66.15
75455;BME280;64035;48.358;2.122;2023-02-26T01:02:13;100711.63;;;3.51;66.37
75455;BME280;64035;48.358;2.122;2023-02-26T01:03:16;100707.31;;;3.50;66.19
75455;BME280;64035;48.358;2.122;2023-02-26T01:04:21;100717.44;;;3.50;65.68
75455;BME280;64035;48.358;2.122;2023-02-26T01:05:25;100715.41;;;3.46;66.41
75455;BME280;64035;48.358;2.122;2023-02-26T01:06:32;100715.41;;;3.46;66.12
75455;BME280;64035;48.358;2.122;2023-02-26T01:10:40;100712.41;;;3.40;67.01
75455;BME280;64035;48.358;2.122;2023-02-26T01:11:44;100717.31;;;3.39;66.32
75455;BME280;64035;48.358;2.122;2023-02-26T01:12:47;100710.41;;;3.36;66.39
75455;BME280;64035;48.358;2.122;2023-02-26T01:13:51;100709.38;;;3.34;65.78
75455;BME280;64035;48.358;2.122;2023-02-26T01:14:54;100714.44;;;3.34;66.13
75455;BME280;64035;48.358;2.122;2023-02-26T01:16:04;100715.94;;;3.32;66.47
75455;BME280;64035;48.358;2.122;2023-02-26T01:17:17;100720.66;;;3.28;65.80
75455;BME280;64035;48.358;2.122;2023-02-26T01:18:27;100722.16;;;3.26;66.08
75455;BME280;64035;48.358;2.122;2023-02-26T01:19:53;100727.34;;;3.27;66.00
75455;BME280;64035;48.358;2.122;2023-02-26T01:21:03;100722.81;;;3.23;65.93
75455;BME280;64035;48.358;2.122;2023-02-26T01:22:14;100722.81;;;3.23;66.57
75455;BME280;64035;48.358;2.122;2023-02-26T01:23:24;100727.00;;;3.23;66.77
75455;BME280;64035;48.358;2.122;2023-02-26T01:24:29;100735.34;;;3.22;67.21
75455;BME280;64035;48.358;2.122;2023-02-26T01:25:52;100729.25;;;3.20;66.69
75455;BME280;64035;48.358;2.122;2023-02-26T01:26:57;100731.56;;;3.17;66.72
75455;BME280;64035;48.358;2.122;2023-02-26T01:28:01;100730.78;;;3.18;67.01
75455;BME280;64035;48.358;2.122;2023-02-26T01:29:04;100726.50;;;3.17;67.06
75455;BME280;64035;48.358;2.122;2023-02-26T01:30:08;100728.38;;;3.19;67.42
75455;BME280;64035;48.358;2.122;2023-02-26T01:31:34;100730.00;;;3.19;67.04
75455;BME280;64035;48.358;2.122;2023-02-26T01:32:48;100728.25;;;3.18;66.07
75455;BME280;64035;48.358;2.122;2023-02-26T01:34:00;100737.22;;;3.14;65.45
75455;BME280;64035;48.358;2.122;2023-02-26T01:35:12;100730.13;;;3.10;65.96
75455;BME280;64035;48.358;2.122;2023-02-26T01:36:19;100732.56;;;3.08;66.28
75455;BME280;64035;48.358;2.122;2023-02-26T01:40:27;100728.66;;;3.02;67.01
75455;BME280;64035;48.358;2.122;2023-02-26T01:41:40;100729.53;;;3.02;67.56
75455;BME280;64035;48.358;2.122;2023-02-26T01:42:48;100726.00;;;3.00;67.33
75455;BME280;64035;48.358;2.122;2023-02-26T01:45:22;100726.88;;;3.01;67.05
75455;BME280;64035;48.358;2.122;2023-02-26T01:48:21;100732.81;;;3.01;67.13
75455;BME280;64035;48.358;2.122;2023-02-26T01:49:28;100727.50;;;2.98;66.97
75455;BME280;64035;48.358;2.122;2023-02-26T01:50:34;100729.16;;;2.98;66.87
75455;BME280;64035;48.358;2.122;2023-02-26T01:51:51;100729.16;;;2.98;67.14
75455;BME280;64035;48.358;2.122;2023-02-26T01:53:23;100731.53;;;2.96;66.99
75455;BME280;64035;48.358;2.122;2023-02-26T01:55:33;100729.66;;;2.94;66.73
75455;BME280;64035;48.358;2.122;2023-02-26T01:56:37;100730.41;;;2.93;67.17
75455;BME280;64035;48.358;2.122;2023-02-26T01:57:42;100728.66;;;2.92;67.54
75455;BME280;64035;48.358;2.122;2023-02-26T01:58:47;100730.41;;;2.93;67.34
75455;BME280;64035;48.358;2.122;2023-02-26T01:59:52;100732.94;;;2.93;67.18
75455;BME280;64035;48.358;2.122;2023-02-26T02:00:56;100741.41;;;2.93;67.35
75455;BME280;64035;48.358;2.122;2023-02-26T02:02:01;100735.47;;;2.93;66.82
75455;BME280;64035;48.358;2.122;2023-02-26T02:03:06;100742.19;;;2.92;67.50
75455;BME280;64035;48.358;2.122;2023-02-26T02:04:12;100737.72;;;2.90;66.86
75455;BME280;64035;48.358;2.122;2023-02-26T02:05:31;100736.84;;;2.89;67.45
75455;BME280;64035;48.358;2.122;2023-02-26T02:06:37;100738.63;;;2.90;67.39
75455;BME280;64035;48.358;2.122;2023-02-26T02:07:40;100741.00;;;2.89;66.87
75455;BME280;64035;48.358;2.122;2023-02-26T02:08:44;100740.13;;;2.88;67.26
75455;BME280;64035;48.358;2.122;2023-02-26T02:09:47;100740.66;;;2.84;66.27
75455;BME280;64035;48.358;2.122;2023-02-26T02:10:51;100749.88;;;2.84;67.56
75455;BME280;64035;48.358;2.122;2023-02-26T02:14:42;100746.22;;;2.80;65.96
75455;BME280;64035;48.358;2.122;2023-02-26T02:20:04;100756.06;;;2.77;67.11
75455;BME280;64035;48.358;2.122;2023-02-26T02:25:57;100753.28;;;2.64;67.60
75455;BME280;64035;48.358;2.122;2023-02-26T02:32:19;100757.94;;;2.59;66.24
75455;BME280;64035;48.358;2.122;2023-02-26T02:33:30;100756.78;;;2.56;66.61
75455;BME280;64035;48.358;2.122;2023-02-26T02:34:44;100761.72;;;2.54;67.05
75455;BME280;64035;48.358;2.122;2023-02-26T02:35:58;100759.81;;;2.52;67.00
75455;BME280;64035;48.358;2.122;2023-02-26T02:38:30;100753.00;;;2.51;67.65
75455;BME280;64035;48.358;2.122;2023-02-26T02:39:49;100763.22;;;2.52;67.99
75455;BME280;64035;48.358;2.122;2023-02-26T02:41:03;100770.69;;;2.51;67.22
75455;BME280;64035;48.358;2.122;2023-02-26T02:42:33;100760.44;;;2.49;66.87
75455;BME280;64035;48.358;2.122;2023-02-26T02:43:38;100760.16;;;2.46;67.47
75455;BME280;64035;48.358;2.122;2023-02-26T02:44:48;100765.88;;;2.44;66.68
75455;BME280;64035;48.358;2.122;2023-02-26T02:47:00;100767.97;;;2.39;67.46
75455;BME280;64035;48.358;2.122;2023-02-26T02:48:19;100771.41;;;2.40;67.24
75455;BME280;64035;48.358;2.122;2023-02-26T02:49:35;100774.66;;;2.39;67.63
75455;BME280;64035;48.358;2.122;2023-02-26T02:50:46;100778.97;;;2.40;66.61
75455;BME280;64035;48.358;2.122;2023-02-26T02:51:53;100776.22;;;2.37;66.85
75455;BME280;64035;48.358;2.122;2023-02-26T02:53:01;100772.50;;;2.33;66.83
75455;BME280;64035;48.358;2.122;2023-02-26T02:54:12;100771.78;;;2.34;66.83
75455;BME280;64035;48.358;2.122;2023-02-26T02:55:20;100775.03;;;2.33;67.44
75455;BME280;64035;48.358;2.122;2023-02-26T02:58:04;100774.00;;;2.31;66.55
75455;BME280;64035;48.358;2.122;2023-02-26T02:59:19;100772.00;;;2.27;66.07
75455;BME280;64035;48.358;2.122;2023-02-26T03:00:27;100782.09;;;2.27;67.06
75455;BME280;64035;48.358;2.122;2023-02-26T03:01:34;100786.25;;;2.26;66.60
75455;BME280;64035;48.358;2.122;2023-02-26T03:02:50;100781.06;;;2.25;66.01
75455;BME280;64035;48.358;2.122;2023-02-26T03:04:08;100781.56;;;2.21;66.42
75455;BME280;64035;48.358;2.122;2023-02-26T03:05:13;100787.38;;;2.20;66.04
75455;BME280;64035;48.358;2.122;2023-02-26T03:06:17;100782.06;;;2.17;66.22
75455;BME280;64035;48.358;2.122;2023-02-26T03:07:19;100781.06;;;2.15;66.29
75455;BME280;64035;48.358;2.122;2023-02-26T03:08:31;100787.88;;;2.16;67.06
75455;BME280;64035;48.358;2.122;2023-02-26T03:09:36;100787.00;;;2.15;66.31
75455;BME280;64035;48.358;2.122;2023-02-26T03:10:40;100787.59;;;2.13;66.06
75455;BME280;64035;48.358;2.122;2023-02-26T03:11:43;100784.06;;;2.11;65.61
75455;BME280;64035;48.358;2.122;2023-02-26T03:12:47;100784.69;;;2.08;66.63
75455;BME280;64035;48.358;2.122;2023-02-26T03:13:50;100780.53;;;2.09;66.62
75455;BME280;64035;48.358;2.122;2023-02-26T03:14:59;100793.91;;;2.08;66.28
75455;BME280;64035;48.358;2.122;2023-02-26T03:17:53;100799.19;;;2.11;67.10
75455;BME280;64035;48.358;2.122;2023-02-26T03:20:35;100794.28;;;2.12;67.93
75455;BME280;64035;48.358;2.122;2023-02-26T03:21:48;100799.47;;;2.14;67.64
75455;BME280;64035;48.358;2.122;2023-02-26T03:23:32;100805.28;;;2.13;67.40
75455;BME280;64035;48.358;2.122;2023-02-26T03:26:28;100806.16;;;2.13;67.17
75455;BME280;64035;48.358;2.122;2023-02-26T03:27:38;100807.81;;;2.13;67.03
75455;BME280;64035;48.358;2.122;2023-02-26T03:28:56;100810.31;;;2.13;67.72
75455;BME280;64035;48.358;2.122;2023-02-26T03:31:48;100811.06;;;2.12;67.25
75455;BME280;64035;48.358;2.122;2023-02-26T03:35:14;100802.38;;;2.08;67.45
75455;BME280;64035;48.358;2.122;2023-02-26T03:36:38;100811.06;;;2.12;67.33
75455;BME280;64035;48.358;2.122;2023-02-26T03:38:02;100808.41;;;2.10;66.56
75455;BME280;64035;48.358;2.122;2023-02-26T03:39:15;100813.06;;;2.06;67.47
75455;BME280;64035;48.358;2.122;2023-02-26T03:40:26;100805.50;;;2.06;67.93
75455;BME280;64035;48.358;2.122;2023-02-26T03:41:37;100810.53;;;2.06;68.00
75455;BME280;64035;48.358;2.122;2023-02-26T03:42:54;100809.78;;;2.07;67.44
75455;BME280;64035;48.358;2.122;2023-02-26T03:44:30;100806.25;;;2.05;67.51
75455;BME280;64035;48.358;2.122;2023-02-26T03:45:36;100814.72;;;2.05;67.82
75455;BME280;64035;48.358;2.122;2023-02-26T03:46:45;100815.44;;;2.04;67.46
75455;BME280;64035;48.358;2.122;2023-02-26T03:47:51;100813.28;;;1.99;67.26
75455;BME280;64035;48.358;2.122;2023-02-26T03:48:58;100821.59;;;1.98;66.32
75455;BME280;64035;48.358;2.122;2023-02-26T03:50:16;100819.59;;;1.93;67.38
75455;BME280;64035;48.358;2.122;2023-02-26T03:51:32;100818.84;;;1.94;67.52
75455;BME280;64035;48.358;2.122;2023-02-26T03:53:01;100817.06;;;1.93;67.03
75455;BME280;64035;48.358;2.122;2023-02-26T03:54:42;100821.22;;;1.93;67.23
75455;BME280;64035;48.358;2.122;2023-02-26T03:56:27;100824.72;;;1.95;67.80
75455;BME280;64035;48.358;2.122;2023-02-26T03:57:51;100819.81;;;1.96;66.66
75455;BME280;64035;48.358;2.122;2023-02-26T03:59:16;100823.09;;;1.95;66.63
75455;BME280;64035;48.358;2.122;2023-02-26T04:00:22;100823.38;;;1.99;67.05
75455;BME280;64035;48.358;2.122;2023-02-26T04:01:28;100823.25;;;1.97;67.54
75455;BME280;64035;48.358;2.122;2023-02-26T04:02:50;100826.50;;;1.96;68.34
75455;BME280;64035;48.358;2.122;2023-02-26T04:04:01;100833.19;;;1.95;66.59
75455;BME280;64035;48.358;2.122;2023-02-26T04:05:16;100826.13;;;1.91;66.93
75455;BME280;64035;48.358;2.122;2023-02-26T04:06:22;100829.38;;;1.90;67.33
75455;BME280;64035;48.358;2.122;2023-02-26T04:07:26;100829.09;;;1.87;66.64
75455;BME280;64035;48.358;2.122;2023-02-26T04:08:31;100828.84;;;1.84;67.53
75455;BME280;64035;48.358;2.122;2023-02-26T04:09:34;100832.13;;;1.83;66.92
75455;BME280;64035;48.358;2.122;2023-02-26T04:10:47;100826.69;;;1.79;67.29
75455;BME280;64035;48.358;2.122;2023-02-26T04:11:55;100833.38;;;1.78;67.84
75455;BME280;64035;48.358;2.122;2023-02-26T04:13:00;100835.16;;;1.79;67.29
75455;BME280;64035;48.358;2.122;2023-02-26T04:14:04;100842.56;;;1.78;68.14
75455;BME280;64035;48.358;2.122;2023-02-26T04:15:12;100839.31;;;1.79;67.48
75455;BME280;64035;48.358;2.122;2023-02-26T04:16:17;100842.44;;;1.76;67.63
75455;BME280;64035;48.358;2.122;2023-02-26T04:17:21;100837.25;;;1.75;66.67
75455;BME280;64035;48.358;2.122;2023-02-26T04:18:24;100845.44;;;1.72;67.44
75455;BME280;64035;48.358;2.122;2023-02-26T04:19:27;100837.88;;;1.72;67.34
75455;BME280;64035;48.358;2.122;2023-02-26T04:20:30;100844.41;;;1.70;68.01
75455;BME280;64035;48.358;2.122;2023-02-26T04:21:33;100848.44;;;1.68;67.46
75455;BME280;64035;48.358;2.122;2023-02-26T04:22:36;100839.97;;;1.68;67.75
75455;BME280;64035;48.358;2.122;2023-02-26T04:23:40;100845.91;;;1.68;68.06
75455;BME280;64035;48.358;2.122;2023-02-26T04:24:43;100840.84;;;1.68;67.77
75455;BME280;64035;48.358;2.122;2023-02-26T04:25:48;100852.72;;;1.69;67.53
75455;BME280;64035;48.358;2.122;2023-02-26T04:26:52;100848.44;;;1.68;68.33
75455;BME280;64035;48.358;2.122;2023-02-26T04:27:56;100853.47;;;1.68;67.76
75455;BME280;64035;48.358;2.122;2023-02-26T04:28:59;100847.41;;;1.66;67.66
75455;BME280;64035;48.358;2.122;2023-02-26T04:30:02;100839.06;;;1.67;68.19
75455;BME280;64035;48.358;2.122;2023-02-26T04:31:07;100850.06;;;1.68;67.18
75455;BME280;64035;48.358;2.122;2023-02-26T04:32:12;100855.75;;;1.65;68.10
75455;BME280;64035;48.358;2.122;2023-02-26T04:33:15;100849.53;;;1.62;67.79
75455;BME280;64035;48.358;2.122;2023-02-26T04:34:18;100855.75;;;1.65;68.57
75455;BME280;64035;48.358;2.122;2023-02-26T04:35:21;100856.50;;;1.64;68.62
75455;BME280;64035;48.358;2.122;2023-02-26T04:36:24;100863.31;;;1.65;68.07
75455;BME280;64035;48.358;2.122;2023-02-26T04:37:26;100857.09;;;1.62;67.58
75455;BME280;64035;48.358;2.122;2023-02-26T04:38:29;100857.69;;;1.59;68.13
75455;BME280;64035;48.358;2.122;2023-02-26T04:39:32;100854.03;;;1.55;68.18
75455;BME280;64035;48.358;2.122;2023-02-26T04:40:35;100849.13;;;1.57;68.11
75455;BME280;64035;48.358;2.122;2023-02-26T04:41:38;100852.25;;;1.54;68.91
75455;BME280;64035;48.358;2.122;2023-02-26T04:42:41;100853.28;;;1.56;67.91
75455;BME280;64035;48.358;2.122;2023-02-26T04:43:45;100856.69;;;1.57;68.24
75455;BME280;64035;48.358;2.122;2023-02-26T04:45:07;100860.69;;;1.55;67.77
75455;BME280;64035;48.358;2.122;2023-02-26T04:46:12;100858.19;;;1.55;68.36
75455;BME280;64035;48.358;2.122;2023-02-26T04:47:15;100858.03;;;1.53;67.02
75455;BME280;64035;48.358;2.122;2023-02-26T04:48:19;100860.41;;;1.52;68.32
75455;BME280;64035;48.358;2.122;2023-02-26T04:49:22;100861.94;;;1.50;68.05
75455;BME280;64035;48.358;2.122;2023-02-26T04:50:25;100868.47;;;1.48;67.72
75455;BME280;64035;48.358;2.122;2023-02-26T04:51:29;100862.25;;;1.44;67.87
75455;BME280;64035;48.358;2.122;2023-02-26T04:52:32;100863.91;;;1.44;67.25
75455;BME280;64035;48.358;2.122;2023-02-26T04:53:35;100865.53;;;1.43;68.74
75455;BME280;64035;48.358;2.122;2023-02-26T04:54:38;100866.44;;;1.44;69.07
75455;BME280;64035;48.358;2.122;2023-02-26T04:55:42;100864.75;;;1.44;68.12
75455;BME280;64035;48.358;2.122;2023-02-26T04:56:45;100860.50;;;1.43;68.02
75455;BME280;64035;48.358;2.122;2023-02-26T04:57:48;100862.13;;;1.43;68.33
75455;BME280;64035;48.358;2.122;2023-02-26T04:58:51;100871.31;;;1.42;68.88
75455;BME280;64035;48.358;2.122;2023-02-26T05:00:00;100872.97;;;1.42;68.72
75455;BME280;64035;48.358;2.122;2023-02-26T05:01:08;100860.19;;;1.40;67.97
75455;BME280;64035;48.358;2.122;2023-02-26T05:02:10;100872.66;;;1.39;69.03
75455;BME280;64035;48.358;2.122;2023-02-26T05:03:16;100872.81;;;1.40;68.25
75455;BME280;64035;48.358;2.122;2023-02-26T05:04:19;100871.94;;;1.40;69.00
75455;BME280;64035;48.358;2.122;2023-02-26T05:05:26;100879.50;;;1.40;68.06
75455;BME280;64035;48.358;2.122;2023-02-26T05:06:29;100879.63;;;1.41;68.31
75455;BME280;64035;48.358;2.122;2023-02-26T05:07:32;100872.81;;;1.40;68.00
75455;BME280;64035;48.358;2.122;2023-02-26T05:08:35;100873.84;;;1.42;68.04
75455;BME280;64035;48.358;2.122;2023-02-26T05:09:39;100875.47;;;1.42;68.36
75455;BME280;64035;48.358;2.122;2023-02-26T05:10:42;100875.19;;;1.39;68.79
75455;BME280;64035;48.358;2.122;2023-02-26T05:11:46;100870.88;;;1.38;68.15
75455;BME280;64035;48.358;2.122;2023-02-26T05:12:50;100880.97;;;1.38;68.55
75455;BME280;64035;48.358;2.122;2023-02-26T05:13:53;100880.56;;;1.33;67.31
75455;BME280;64035;48.358;2.122;2023-02-26T05:14:56;100876.91;;;1.30;67.56
75455;BME280;64035;48.358;2.122;2023-02-26T05:15:59;100883.44;;;1.28;68.79
75455;BME280;64035;48.358;2.122;2023-02-26T05:17:02;100882.38;;;1.26;68.50
75455;BME280;64035;48.358;2.122;2023-02-26T05:18:05;100886.53;;;1.25;69.01
75455;BME280;64035;48.358;2.122;2023-02-26T05:19:08;100877.19;;;1.24;68.42
75455;BME280;64035;48.358;2.122;2023-02-26T05:20:11;100886.41;;;1.24;68.86
75455;BME280;64035;48.358;2.122;2023-02-26T05:21:15;100889.81;;;1.24;69.17
75455;BME280;64035;48.358;2.122;2023-02-26T05:22:17;100890.69;;;1.25;69.22
75455;BME280;64035;48.358;2.122;2023-02-26T05:23:21;100886.69;;;1.27;68.76
75455;BME280;64035;48.358;2.122;2023-02-26T05:24:24;100891.72;;;1.27;68.56
75455;BME280;64035;48.358;2.122;2023-02-26T05:25:27;100889.22;;;1.27;69.10
75455;BME280;64035;48.358;2.122;2023-02-26T05:26:30;100884.03;;;1.25;68.93
75455;BME280;64035;48.358;2.122;2023-02-26T05:27:33;100891.72;;;1.27;69.25
75455;BME280;64035;48.358;2.122;2023-02-26T05:28:37;100887.56;;;1.27;69.43
75455;BME280;64035;48.358;2.122;2023-02-26T05:29:40;100888.31;;;1.26;68.63
75455;BME280;64035;48.358;2.122;2023-02-26T05:30:48;100883.13;;;1.25;69.01
75455;BME280;64035;48.358;2.122;2023-02-26T05:31:52;100889.81;;;1.24;68.79
75455;BME280;64035;48.358;2.122;2023-02-26T05:32:55;100886.41;;;1.24;69.10
75455;BME280;64035;48.358;2.122;2023-02-26T05:33:57;100883.75;;;1.22;69.45
75455;BME280;64035;48.358;2.122;2023-02-26T05:35:00;100898.75;;;1.21;69.12
75455;BME280;64035;48.358;2.122;2023-02-26T05:36:04;100896.22;;;1.21;69.73
75455;BME280;64035;48.358;2.122;2023-02-26T05:37:08;100889.41;;;1.20;69.36
75455;BME280;64035;48.358;2.122;2023-02-26T05:38:11;100898.59;;;1.19;69.37
75455;BME280;64035;48.358;2.122;2023-02-26T05:39:15;100902.16;;;1.21;69.46
75455;BME280;64035;48.358;2.122;2023-02-26T05:40:18;100897.69;;;1.18;68.33
75455;BME280;64035;48.358;2.122;2023-02-26T05:41:21;100900.06;;;1.17;69.51
75455;BME280;64035;48.358;2.122;2023-02-26T05:42:24;100893.25;;;1.16;68.69
75455;BME280;64035;48.358;2.122;2023-02-26T05:43:27;100894.63;;;1.12;69.07
75455;BME280;64035;48.358;2.122;2023-02-26T05:44:30;100899.19;;;1.16;69.58
75455;BME280;64035;48.358;2.122;2023-02-26T05:45:33;100899.06;;;1.15;69.17
75455;BME280;64035;48.358;2.122;2023-02-26T05:46:36;100902.34;;;1.14;69.06
75455;BME280;64035;48.358;2.122;2023-02-26T05:47:39;100898.78;;;1.12;69.35
75455;BME280;64035;48.358;2.122;2023-02-26T05:48:42;100893.88;;;1.13;69.11
75455;BME280;64035;48.358;2.122;2023-02-26T05:49:45;100901.28;;;1.12;68.88
75455;BME280;64035;48.358;2.122;2023-02-26T05:50:49;100893.72;;;1.12;68.40
75455;BME280;64035;48.358;2.122;2023-02-26T05:51:52;100901.16;;;1.10;68.47
75455;BME280;64035;48.358;2.122;2023-02-26T05:52:55;100901.00;;;1.09;68.65
75455;BME280;64035;48.358;2.122;2023-02-26T05:53:58;100903.53;;;1.09;70.00
75455;BME280;64035;48.358;2.122;2023-02-26T05:55:01;100909.44;;;1.09;69.45
75455;BME280;64035;48.358;2.122;2023-02-26T05:56:04;100903.53;;;1.09;69.98
75455;BME280;64035;48.358;2.122;2023-02-26T05:57:07;100909.59;;;1.11;69.86
75455;BME280;64035;48.358;2.122;2023-02-26T05:58:11;100905.44;;;1.11;70.30
75455;BME280;64035;48.358;2.122;2023-02-26T05:59:14;100908.25;;;1.14;70.05
75455;BME280;64035;48.358;2.122;2023-02-26T06:00:17;100899.81;;;1.14;69.05
75455;BME280;64035;48.358;2.122;2023-02-26T06:01:20;100910.16;;;1.17;69.60
75455;BME280;64035;48.358;2.122;2023-02-26T06:02:23;100907.63;;;1.17;69.87
75455;BME280;64035;48.358;2.122;2023-02-26T06:03:26;100913.41;;;1.16;69.21
75455;BME280;64035;48.358;2.122;2023-02-26T06:04:29;100904.97;;;1.15;69.56
75455;BME280;64035;48.358;2.122;2023-02-26T06:05:32;100906.16;;;1.19;69.51
75455;BME280;64035;48.358;2.122;2023-02-26T06:06:38;100903.94;;;1.22;69.45
75455;BME280;64035;48.358;2.122;2023-02-26T06:07:41;100909.81;;;1.23;69.18
75455;BME280;64035;48.358;2.122;2023-02-26T06:08:44;100896.47;;;1.24;69.09
75455;BME280;64035;48.358;2.122;2023-02-26T06:09:47;100901.53;;;1.24;68.73
75455;BME280;64035;48.358;2.122;2023-02-26T06:10:51;100907.31;;;1.23;68.43
75455;BME280;64035;48.358;2.122;2023-02-26T06:11:54;100908.09;;;1.22;68.65
75455;BME280;64035;48.358;2.122;2023-02-26T06:12:57;100903.31;;;1.25;68.49
75455;BME280;64035;48.358;2.122;2023-02-26T06:14:00;100903.44;;;1.26;68.43
75455;BME280;64035;48.358;2.122;2023-02-26T06:15:04;100907.59;;;1.26;68.85
75455;BME280;64035;48.358;2.122;2023-02-26T06:16:08;100908.50;;;1.26;68.65
75455;BME280;64035;48.358;2.122;2023-02-26T06:17:11;100906.56;;;1.24;68.43
75455;BME280;64035;48.358;2.122;2023-02-26T06:18:14;100910.88;;;1.25;68.69
75455;BME280;64035;48.358;2.122;2023-02-26T06:19:17;100911.59;;;1.24;68.78
75455;BME280;64035;48.358;2.122;2023-02-26T06:20:20;100903.94;;;1.22;69.38
75455;BME280;64035;48.358;2.122;2023-02-26T06:21:23;100904.66;;;1.21;68.39
75455;BME280;64035;48.358;2.122;2023-02-26T06:22:26;100909.09;;;1.24;68.91
75455;BME280;64035;48.358;2.122;2023-02-26T06:23:30;100909.81;;;1.23;68.68
75455;BME280;64035;48.358;2.122;2023-02-26T06:24:33;100912.50;;;1.24;68.88
75455;BME280;64035;48.358;2.122;2023-02-26T06:25:35;100912.34;;;1.23;67.86
75455;BME280;64035;48.358;2.122;2023-02-26T06:26:38;100918.44;;;1.25;68.57
75455;BME280;64035;48.358;2.122;2023-02-26T06:27:41;100910.44;;;1.20;68.51
75455;BME280;64035;48.358;2.122;2023-02-26T06:28:45;100916.84;;;1.16;68.66
75455;BME280;64035;48.358;2.122;2023-02-26T06:29:47;100922.63;;;1.15;69.08
75455;BME280;64035;48.358;2.122;2023-02-26T06:30:51;100924.88;;;1.12;68.79
75455;BME280;64035;48.358;2.122;2023-02-26T06:31:54;100925.03;;;1.14;69.75
75455;BME280;64035;48.358;2.122;2023-02-26T06:32:57;100924.13;;;1.13;69.40
75455;BME280;64035;48.358;2.122;2023-02-26T06:34:00;100924.41;;;1.16;69.34
75455;BME280;64035;48.358;2.122;2023-02-26T06:35:04;100925.28;;;1.17;69.17
75455;BME280;64035;48.358;2.122;2023-02-26T06:36:08;100927.94;;;1.18;69.08
75455;BME280;64035;48.358;2.122;2023-02-26T06:37:11;100938.34;;;1.22;68.32
75455;BME280;64035;48.358;2.122;2023-02-26T06:38:14;100935.03;;;1.23;68.55
75455;BME280;64035;48.358;2.122;2023-02-26T06:39:17;100935.66;;;1.20;69.21
75455;BME280;64035;48.358;2.122;2023-02-26T06:40:20;100940.41;;;1.17;68.97
75455;BME280;64035;48.358;2.122;2023-02-26T06:41:24;100940.25;;;1.15;67.88